sensor_id;sensor_type;location;lat;lon;timestamp;P1;durP1;ratioP1;P2;durP2;ratioP2
757;SDS011;363;48.764;9.172;2023-11-18T00:00:24;3.47;;;3.17;;
757;SDS011;363;48.764;9.172;2023-11-18T00:02:50;4.10;;;3.53;;
757;SDS011;363;48.764;9.172;2023-11-18T00:05:16;4.05;;;3.75;;
757;SDS011;363;48.764;9.172;2023-11-18T00:07:42;4.32;;;3.92;;
757;SDS011;363;48.764;9.172;2023-11-18T00:10:08;5.03;;;3.40;;
757;SDS011;363;48.764;9.172;2023-11-18T00:12:34;4.70;;;4.20;;
757;SDS011;363;48.764;9.172;2023-11-18T00:15:02;3.92;;;3.63;;
757;SDS011;363;48.764;9.172;2023-11-18T00:17:28;4.63;;;4.22;;
757;SDS011;363;48.764;9.172;2023-11-18T00:19:57;4.80;;;4.32;;
757;SDS011;363;48.764;9.172;2023-11-18T00:22:22;3.80;;;3.50;;
757;SDS011;363;48.764;9.172;2023-11-18T00:24:48;3.80;;;3.50;;
757;SDS011;363;48.764;9.172;2023-11-18T00:27:13;5.27;;;4.37;;
757;SDS011;363;48.764;9.172;2023-11-18T00:29:40;4.65;;;4.15;;
757;SDS011;363;48.764;9.172;2023-11-18T00:32:06;5.22;;;4.20;;
757;SDS011;363;48.764;9.172;2023-11-18T00:34:32;4.75;;;3.90;;
757;SDS011;363;48.764;9.172;2023-11-18T00:36:58;5.10;;;4.10;;
757;SDS011;363;48.764;9.172;2023-11-18T00:39:23;5.70;;;3.93;;
757;SDS011;363;48.764;9.172;2023-11-18T00:41:49;5.18;;;4.40;;
757;SDS011;363;48.764;9.172;2023-11-18T00:44:15;5.20;;;4.70;;
757;SDS011;363;48.764;9.172;2023-11-18T00:46:40;6.33;;;4.20;;
757;SDS011;363;48.764;9.172;2023-11-18T00:49:06;4.90;;;4.40;;
757;SDS011;363;48.764;9.172;2023-11-18T00:51:32;4.20;;;3.80;;
757;SDS011;363;48.764;9.172;2023-11-18T00:53:57;4.30;;;3.90;;
757;SDS011;363;48.764;9.172;2023-11-18T00:56:25;4.18;;;3.78;;
757;SDS011;363;48.764;9.172;2023-11-18T00:58:52;5.00;;;3.80;;
757;SDS011;363;48.764;9.172;2023-11-18T01:01:18;6.40;;;4.27;;
757;SDS011;363;48.764;9.172;2023-11-18T01:03:44;4.30;;;3.90;;
757;SDS011;363;48.764;9.172;2023-11-18T01:06:10;5.00;;;4.55;;
757;SDS011;363;48.764;9.172;2023-11-18T01:08:36;6.53;;;4.90;;
757;SDS011;363;48.764;9.172;2023-11-18T01:11:02;6.60;;;5.27;;
757;SDS011;363;48.764;9.172;2023-11-18T01:13:29;5.00;;;4.60;;
757;SDS011;363;48.764;9.172;2023-11-18T01:15:56;5.10;;;4.57;;
757;SDS011;363;48.764;9.172;2023-11-18T01:18:22;5.18;;;4.45;;
757;SDS011;363;48.764;9.172;2023-11-18T01:20:48;5.20;;;4.40;;
757;SDS011;363;48.764;9.172;2023-11-18T01:23:13;5.10;;;4.37;;
757;SDS011;363;48.764;9.172;2023-11-18T01:25:39;4.20;;;3.80;;
757;SDS011;363;48.764;9.172;2023-11-18T01:28:05;5.40;;;4.50;;
757;SDS011;363;48.764;9.172;2023-11-18T01:30:31;5.13;;;4.63;;
757;SDS011;363;48.764;9.172;2023-11-18T01:32:57;4.13;;;3.72;;
757;SDS011;363;48.764;9.172;2023-11-18T01:35:26;4.15;;;3.80;;
757;SDS011;363;48.764;9.172;2023-11-18T01:37:51;4.97;;;4.57;;
757;SDS011;363;48.764;9.172;2023-11-18T01:40:17;4.10;;;3.70;;
757;SDS011;363;48.764;9.172;2023-11-18T01:42:43;4.97;;;4.40;;
757;SDS011;363;48.764;9.172;2023-11-18T01:45:11;5.15;;;3.92;;
757;SDS011;363;48.764;9.172;2023-11-18T01:47:37;6.30;;;3.90;;
757;SDS011;363;48.764;9.172;2023-11-18T01:50:05;5.20;;;4.70;;
757;SDS011;363;48.764;9.172;2023-11-18T01:52:33;4.15;;;3.83;;
757;SDS011;363;48.764;9.172;2023-11-18T01:54:59;3.70;;;3.40;;
757;SDS011;363;48.764;9.172;2023-11-18T01:57:26;4.05;;;3.00;;
757;SDS011;363;48.764;9.172;2023-11-18T01:59:53;3.73;;;3.40;;
757;SDS011;363;48.764;9.172;2023-11-18T02:02:19;3.55;;;3.25;;
757;SDS011;363;48.764;9.172;2023-11-18T02:04:47;4.05;;;3.70;;
757;SDS011;363;48.764;9.172;2023-11-18T02:07:14;3.80;;;3.50;;
757;SDS011;363;48.764;9.172;2023-11-18T02:09:40;4.43;;;4.03;;
757;SDS011;363;48.764;9.172;2023-11-18T02:12:08;3.78;;;3.47;;
757;SDS011;363;48.764;9.172;2023-11-18T02:14:48;3.97;;;3.55;;
757;SDS011;363;48.764;9.172;2023-11-18T02:17:15;3.90;;;3.50;;
757;SDS011;363;48.764;9.172;2023-11-18T02:19:44;4.60;;;4.20;;
757;SDS011;363;48.764;9.172;2023-11-18T02:22:10;3.38;;;3.08;;
757;SDS011;363;48.764;9.172;2023-11-18T02:24:36;3.50;;;3.20;;
757;SDS011;363;48.764;9.172;2023-11-18T02:27:02;3.30;;;3.00;;
757;SDS011;363;48.764;9.172;2023-11-18T02:29:34;3.10;;;2.90;;
757;SDS011;363;48.764;9.172;2023-11-18T02:32:13;3.25;;;2.95;;
757;SDS011;363;48.764;9.172;2023-11-18T02:35:15;3.63;;;3.10;;
757;SDS011;363;48.764;9.172;2023-11-18T02:38:00;3.55;;;2.83;;
757;SDS011;363;48.764;9.172;2023-11-18T02:40:35;5.60;;;4.35;;
757;SDS011;363;48.764;9.172;2023-11-18T02:43:03;3.50;;;3.20;;
757;SDS011;363;48.764;9.172;2023-11-18T02:45:30;3.85;;;3.53;;
757;SDS011;363;48.764;9.172;2023-11-18T02:47:58;4.15;;;3.72;;
757;SDS011;363;48.764;9.172;2023-11-18T02:50:24;4.90;;;3.37;;
757;SDS011;363;48.764;9.172;2023-11-18T02:52:50;3.40;;;3.10;;
757;SDS011;363;48.764;9.172;2023-11-18T02:55:16;4.87;;;3.30;;
757;SDS011;363;48.764;9.172;2023-11-18T02:57:41;3.03;;;2.83;;
757;SDS011;363;48.764;9.172;2023-11-18T03:00:07;6.00;;;3.17;;
757;SDS011;363;48.764;9.172;2023-11-18T03:02:42;3.35;;;2.72;;
757;SDS011;363;48.764;9.172;2023-11-18T03:05:08;3.20;;;2.90;;
757;SDS011;363;48.764;9.172;2023-11-18T03:07:36;2.80;;;2.60;;
757;SDS011;363;48.764;9.172;2023-11-18T03:10:09;2.90;;;2.65;;
757;SDS011;363;48.764;9.172;2023-11-18T03:12:36;4.38;;;3.50;;
757;SDS011;363;48.764;9.172;2023-11-18T03:15:03;3.00;;;2.80;;
757;SDS011;363;48.764;9.172;2023-11-18T03:17:30;3.47;;;3.17;;
757;SDS011;363;48.764;9.172;2023-11-18T03:19:55;3.37;;;3.17;;
757;SDS011;363;48.764;9.172;2023-11-18T03:22:21;3.75;;;3.35;;
757;SDS011;363;48.764;9.172;2023-11-18T03:24:48;5.93;;;3.60;;
757;SDS011;363;48.764;9.172;2023-11-18T03:27:14;5.90;;;3.47;;
757;SDS011;363;48.764;9.172;2023-11-18T03:29:40;4.97;;;4.47;;
757;SDS011;363;48.764;9.172;2023-11-18T03:32:05;3.03;;;2.77;;
757;SDS011;363;48.764;9.172;2023-11-18T03:34:31;3.60;;;3.30;;
757;SDS011;363;48.764;9.172;2023-11-18T03:36:57;3.80;;;3.50;;
757;SDS011;363;48.764;9.172;2023-11-18T03:39:22;3.63;;;3.33;;
757;SDS011;363;48.764;9.172;2023-11-18T03:41:48;3.90;;;3.60;;
757;SDS011;363;48.764;9.172;2023-11-18T03:44:14;3.47;;;3.17;;
757;SDS011;363;48.764;9.172;2023-11-18T03:46:40;3.90;;;3.57;;
757;SDS011;363;48.764;9.172;2023-11-18T03:49:07;3.38;;;3.05;;
757;SDS011;363;48.764;9.172;2023-11-18T03:51:32;3.43;;;3.13;;
757;SDS011;363;48.764;9.172;2023-11-18T03:53:58;3.17;;;2.97;;
757;SDS011;363;48.764;9.172;2023-11-18T03:56:23;4.23;;;2.93;;
757;SDS011;363;48.764;9.172;2023-11-18T03:58:51;3.20;;;2.90;;
757;SDS011;363;48.764;9.172;2023-11-18T04:01:20;4.10;;;3.10;;
757;SDS011;363;48.764;9.172;2023-11-18T04:03:46;6.40;;;3.78;;
757;SDS011;363;48.764;9.172;2023-11-18T04:06:12;3.37;;;3.07;;
757;SDS011;363;48.764;9.172;2023-11-18T04:08:38;3.90;;;3.60;;
757;SDS011;363;48.764;9.172;2023-11-18T04:11:07;3.63;;;3.33;;
757;SDS011;363;48.764;9.172;2023-11-18T04:13:33;2.90;;;2.70;;
757;SDS011;363;48.764;9.172;2023-11-18T04:15:58;3.40;;;3.10;;
757;SDS011;363;48.764;9.172;2023-11-18T04:18:23;3.67;;;3.23;;
757;SDS011;363;48.764;9.172;2023-11-18T04:20:49;11.33;;;4.10;;
757;SDS011;363;48.764;9.172;2023-11-18T04:23:14;4.03;;;3.63;;
757;SDS011;363;48.764;9.172;2023-11-18T04:25:41;4.32;;;3.92;;
757;SDS011;363;48.764;9.172;2023-11-18T04:28:06;4.10;;;3.80;;
757;SDS011;363;48.764;9.172;2023-11-18T04:30:32;4.80;;;3.53;;
757;SDS011;363;48.764;9.172;2023-11-18T04:32:57;3.80;;;3.50;;
757;SDS011;363;48.764;9.172;2023-11-18T04:35:23;6.00;;;5.07;;
757;SDS011;363;48.764;9.172;2023-11-18T04:37:49;4.72;;;4.35;;
757;SDS011;363;48.764;9.172;2023-11-18T04:40:15;4.67;;;3.90;;
757;SDS011;363;48.764;9.172;2023-11-18T04:42:40;3.87;;;3.53;;
757;SDS011;363;48.764;9.172;2023-11-18T04:45:06;5.23;;;4.10;;
757;SDS011;363;48.764;9.172;2023-11-18T04:47:34;5.20;;;3.70;;
757;SDS011;363;48.764;9.172;2023-11-18T04:50:01;4.22;;;3.83;;
757;SDS011;363;48.764;9.172;2023-11-18T04:52:27;4.30;;;3.90;;
757;SDS011;363;48.764;9.172;2023-11-18T04:54:52;4.20;;;3.80;;
757;SDS011;363;48.764;9.172;2023-11-18T04:57:18;3.92;;;3.60;;
757;SDS011;363;48.764;9.172;2023-11-18T04:59:44;4.07;;;3.33;;
757;SDS011;363;48.764;9.172;2023-11-18T05:02:09;4.73;;;3.63;;
757;SDS011;363;48.764;9.172;2023-11-18T05:04:35;4.00;;;3.63;;
757;SDS011;363;48.764;9.172;2023-11-18T05:07:00;4.47;;;3.90;;
757;SDS011;363;48.764;9.172;2023-11-18T05:09:26;3.90;;;3.53;;
757;SDS011;363;48.764;9.172;2023-11-18T05:11:51;3.80;;;3.30;;
757;SDS011;363;48.764;9.172;2023-11-18T05:14:17;4.40;;;3.90;;
757;SDS011;363;48.764;9.172;2023-11-18T05:16:43;3.60;;;3.30;;
757;SDS011;363;48.764;9.172;2023-11-18T05:19:09;4.10;;;3.70;;
757;SDS011;363;48.764;9.172;2023-11-18T05:21:34;3.87;;;3.37;;
757;SDS011;363;48.764;9.172;2023-11-18T05:24:00;3.83;;;3.53;;
757;SDS011;363;48.764;9.172;2023-11-18T05:26:25;3.90;;;3.50;;
757;SDS011;363;48.764;9.172;2023-11-18T05:28:52;3.90;;;3.50;;
757;SDS011;363;48.764;9.172;2023-11-18T05:31:17;3.80;;;3.50;;
757;SDS011;363;48.764;9.172;2023-11-18T05:33:43;4.10;;;3.70;;
757;SDS011;363;48.764;9.172;2023-11-18T05:36:10;3.58;;;3.28;;
757;SDS011;363;48.764;9.172;2023-11-18T05:38:36;4.80;;;4.30;;
757;SDS011;363;48.764;9.172;2023-11-18T05:41:02;6.20;;;4.00;;
757;SDS011;363;48.764;9.172;2023-11-18T05:43:29;4.28;;;3.95;;
757;SDS011;363;48.764;9.172;2023-11-18T05:46:05;3.90;;;3.50;;
757;SDS011;363;48.764;9.172;2023-11-18T05:48:46;5.72;;;4.22;;
757;SDS011;363;48.764;9.172;2023-11-18T05:51:13;6.60;;;4.03;;
757;SDS011;363;48.764;9.172;2023-11-18T05:53:39;4.30;;;3.50;;
757;SDS011;363;48.764;9.172;2023-11-18T05:56:06;4.00;;;3.58;;
757;SDS011;363;48.764;9.172;2023-11-18T05:58:32;4.57;;;4.18;;
757;SDS011;363;48.764;9.172;2023-11-18T06:00:58;4.40;;;4.00;;
757;SDS011;363;48.764;9.172;2023-11-18T06:03:23;4.63;;;4.23;;
757;SDS011;363;48.764;9.172;2023-11-18T06:05:49;4.90;;;4.50;;
757;SDS011;363;48.764;9.172;2023-11-18T06:08:16;4.50;;;4.10;;
757;SDS011;363;48.764;9.172;2023-11-18T06:10:42;5.07;;;4.57;;
757;SDS011;363;48.764;9.172;2023-11-18T06:13:09;4.85;;;4.10;;
757;SDS011;363;48.764;9.172;2023-11-18T06:15:38;4.30;;;3.90;;
757;SDS011;363;48.764;9.172;2023-11-18T06:18:04;4.80;;;4.15;;
757;SDS011;363;48.764;9.172;2023-11-18T06:20:30;4.15;;;3.75;;
757;SDS011;363;48.764;9.172;2023-11-18T06:22:58;4.40;;;4.05;;
757;SDS011;363;48.764;9.172;2023-11-18T06:25:24;6.43;;;4.20;;
757;SDS011;363;48.764;9.172;2023-11-18T06:27:51;4.72;;;4.25;;
757;SDS011;363;48.764;9.172;2023-11-18T06:30:17;4.93;;;4.40;;
757;SDS011;363;48.764;9.172;2023-11-18T06:32:44;5.25;;;4.22;;
757;SDS011;363;48.764;9.172;2023-11-18T06:35:12;7.45;;;3.45;;
757;SDS011;363;48.764;9.172;2023-11-18T06:37:39;4.82;;;4.32;;
757;SDS011;363;48.764;9.172;2023-11-18T06:40:05;5.57;;;4.27;;
757;SDS011;363;48.764;9.172;2023-11-18T06:42:41;4.57;;;3.75;;
757;SDS011;363;48.764;9.172;2023-11-18T06:45:12;4.50;;;4.10;;
757;SDS011;363;48.764;9.172;2023-11-18T06:47:38;5.00;;;4.53;;
757;SDS011;363;48.764;9.172;2023-11-18T06:50:08;4.75;;;4.35;;
757;SDS011;363;48.764;9.172;2023-11-18T06:52:36;5.17;;;4.67;;
757;SDS011;363;48.764;9.172;2023-11-18T06:55:03;4.85;;;4.30;;
757;SDS011;363;48.764;9.172;2023-11-18T06:57:29;7.30;;;5.22;;
757;SDS011;363;48.764;9.172;2023-11-18T06:59:55;6.00;;;5.20;;
757;SDS011;363;48.764;9.172;2023-11-18T07:02:20;4.83;;;4.20;;
757;SDS011;363;48.764;9.172;2023-11-18T07:04:46;5.87;;;4.90;;
757;SDS011;363;48.764;9.172;2023-11-18T07:07:11;5.77;;;5.27;;
757;SDS011;363;48.764;9.172;2023-11-18T07:09:37;5.03;;;4.53;;
757;SDS011;363;48.764;9.172;2023-11-18T07:12:04;5.00;;;4.53;;
757;SDS011;363;48.764;9.172;2023-11-18T07:14:30;5.00;;;4.50;;
757;SDS011;363;48.764;9.172;2023-11-18T07:16:55;5.50;;;4.93;;
757;SDS011;363;48.764;9.172;2023-11-18T07:19:21;5.60;;;5.10;;
757;SDS011;363;48.764;9.172;2023-11-18T07:21:47;9.73;;;4.90;;
757;SDS011;363;48.764;9.172;2023-11-18T07:24:14;5.25;;;4.43;;
757;SDS011;363;48.764;9.172;2023-11-18T07:26:39;7.50;;;4.90;;
757;SDS011;363;48.764;9.172;2023-11-18T07:29:05;7.27;;;5.47;;
757;SDS011;363;48.764;9.172;2023-11-18T07:31:33;4.85;;;4.35;;
757;SDS011;363;48.764;9.172;2023-11-18T07:34:01;5.80;;;5.15;;
757;SDS011;363;48.764;9.172;2023-11-18T07:36:27;8.32;;;5.85;;
757;SDS011;363;48.764;9.172;2023-11-18T07:38:53;7.63;;;6.70;;
757;SDS011;363;48.764;9.172;2023-11-18T07:41:20;5.90;;;5.30;;
757;SDS011;363;48.764;9.172;2023-11-18T07:43:49;6.32;;;5.72;;
757;SDS011;363;48.764;9.172;2023-11-18T07:46:19;8.88;;;6.25;;
757;SDS011;363;48.764;9.172;2023-11-18T07:48:47;6.13;;;5.20;;
757;SDS011;363;48.764;9.172;2023-11-18T07:51:18;7.30;;;5.35;;
757;SDS011;363;48.764;9.172;2023-11-18T07:53:48;6.25;;;4.75;;
757;SDS011;363;48.764;9.172;2023-11-18T07:56:14;5.32;;;4.78;;
757;SDS011;363;48.764;9.172;2023-11-18T07:58:41;5.20;;;4.70;;
757;SDS011;363;48.764;9.172;2023-11-18T08:01:10;7.47;;;5.30;;
757;SDS011;363;48.764;9.172;2023-11-18T08:03:41;6.10;;;5.43;;
757;SDS011;363;48.764;9.172;2023-11-18T08:06:06;5.53;;;5.03;;
757;SDS011;363;48.764;9.172;2023-11-18T08:08:33;5.40;;;4.50;;
757;SDS011;363;48.764;9.172;2023-11-18T08:10:59;5.88;;;4.80;;
757;SDS011;363;48.764;9.172;2023-11-18T08:13:25;5.60;;;5.10;;
757;SDS011;363;48.764;9.172;2023-11-18T08:15:51;6.30;;;4.70;;
757;SDS011;363;48.764;9.172;2023-11-18T08:18:17;5.23;;;4.73;;
757;SDS011;363;48.764;9.172;2023-11-18T08:20:43;5.37;;;4.37;;
757;SDS011;363;48.764;9.172;2023-11-18T08:23:08;4.18;;;3.83;;
757;SDS011;363;48.764;9.172;2023-11-18T08:25:34;4.97;;;4.40;;
757;SDS011;363;48.764;9.172;2023-11-18T08:28:11;5.30;;;4.85;;
757;SDS011;363;48.764;9.172;2023-11-18T08:30:37;4.33;;;3.70;;
757;SDS011;363;48.764;9.172;2023-11-18T08:33:02;6.60;;;4.53;;
757;SDS011;363;48.764;9.172;2023-11-18T08:35:33;3.80;;;3.50;;
757;SDS011;363;48.764;9.172;2023-11-18T08:38:02;4.38;;;3.97;;
757;SDS011;363;48.764;9.172;2023-11-18T08:40:29;4.07;;;3.67;;
757;SDS011;363;48.764;9.172;2023-11-18T08:42:55;6.13;;;3.80;;
757;SDS011;363;48.764;9.172;2023-11-18T08:45:24;3.80;;;3.40;;
757;SDS011;363;48.764;9.172;2023-11-18T08:47:57;4.75;;;3.60;;
757;SDS011;363;48.764;9.172;2023-11-18T08:50:29;3.33;;;3.03;;
757;SDS011;363;48.764;9.172;2023-11-18T08:52:56;2.92;;;2.67;;
757;SDS011;363;48.764;9.172;2023-11-18T08:55:26;4.00;;;3.70;;
757;SDS011;363;48.764;9.172;2023-11-18T08:58:07;3.25;;;2.95;;
757;SDS011;363;48.764;9.172;2023-11-18T09:00:46;5.07;;;3.45;;
757;SDS011;363;48.764;9.172;2023-11-18T09:03:26;3.40;;;2.97;;
757;SDS011;363;48.764;9.172;2023-11-18T09:06:01;4.15;;;2.85;;
757;SDS011;363;48.764;9.172;2023-11-18T09:08:36;2.53;;;2.03;;
757;SDS011;363;48.764;9.172;2023-11-18T09:11:08;3.40;;;2.30;;
757;SDS011;363;48.764;9.172;2023-11-18T09:13:40;2.50;;;2.30;;
757;SDS011;363;48.764;9.172;2023-11-18T09:16:08;4.97;;;3.05;;
757;SDS011;363;48.764;9.172;2023-11-18T09:18:34;3.05;;;1.95;;
757;SDS011;363;48.764;9.172;2023-11-18T09:21:01;2.45;;;2.20;;
757;SDS011;363;48.764;9.172;2023-11-18T09:23:28;2.40;;;2.20;;
757;SDS011;363;48.764;9.172;2023-11-18T09:25:56;2.40;;;2.00;;
757;SDS011;363;48.764;9.172;2023-11-18T09:28:26;3.80;;;2.47;;
757;SDS011;363;48.764;9.172;2023-11-18T09:30:55;2.90;;;2.45;;
757;SDS011;363;48.764;9.172;2023-11-18T09:33:28;4.18;;;2.30;;
757;SDS011;363;48.764;9.172;2023-11-18T09:36:00;2.65;;;2.05;;
757;SDS011;363;48.764;9.172;2023-11-18T09:38:33;2.28;;;1.83;;
757;SDS011;363;48.764;9.172;2023-11-18T09:41:04;2.10;;;2.00;;
757;SDS011;363;48.764;9.172;2023-11-18T09:43:36;2.72;;;2.25;;
757;SDS011;363;48.764;9.172;2023-11-18T09:46:12;1.90;;;1.40;;
757;SDS011;363;48.764;9.172;2023-11-18T09:48:42;2.00;;;1.45;;
757;SDS011;363;48.764;9.172;2023-11-18T09:51:28;5.50;;;2.35;;
757;SDS011;363;48.764;9.172;2023-11-18T09:54:00;1.70;;;1.60;;
757;SDS011;363;48.764;9.172;2023-11-18T09:56:31;2.97;;;1.98;;
757;SDS011;363;48.764;9.172;2023-11-18T09:59:11;2.33;;;2.13;;
757;SDS011;363;48.764;9.172;2023-11-18T10:01:56;2.15;;;1.85;;
757;SDS011;363;48.764;9.172;2023-11-18T10:04:26;2.42;;;2.05;;
757;SDS011;363;48.764;9.172;2023-11-18T10:06:58;2.53;;;1.77;;
757;SDS011;363;48.764;9.172;2023-11-18T10:09:27;2.75;;;2.55;;
757;SDS011;363;48.764;9.172;2023-11-18T10:11:53;1.83;;;1.73;;
757;SDS011;363;48.764;9.172;2023-11-18T10:14:26;2.22;;;2.00;;
757;SDS011;363;48.764;9.172;2023-11-18T10:16:52;1.80;;;1.70;;
757;SDS011;363;48.764;9.172;2023-11-18T10:19:19;3.30;;;2.20;;
757;SDS011;363;48.764;9.172;2023-11-18T10:21:45;4.05;;;2.28;;
757;SDS011;363;48.764;9.172;2023-11-18T10:24:14;1.65;;;1.55;;
757;SDS011;363;48.764;9.172;2023-11-18T10:26:42;2.42;;;2.00;;
757;SDS011;363;48.764;9.172;2023-11-18T10:29:11;2.75;;;1.52;;
757;SDS011;363;48.764;9.172;2023-11-18T10:31:39;1.90;;;1.50;;
757;SDS011;363;48.764;9.172;2023-11-18T10:34:13;2.13;;;1.70;;
757;SDS011;363;48.764;9.172;2023-11-18T10:36:54;2.70;;;1.88;;
757;SDS011;363;48.764;9.172;2023-11-18T10:39:28;2.65;;;2.45;;
757;SDS011;363;48.764;9.172;2023-11-18T10:41:58;2.58;;;1.70;;
757;SDS011;363;48.764;9.172;2023-11-18T10:44:27;2.33;;;2.03;;
757;SDS011;363;48.764;9.172;2023-11-18T10:46:55;1.92;;;1.75;;
757;SDS011;363;48.764;9.172;2023-11-18T10:49:26;2.35;;;2.15;;
757;SDS011;363;48.764;9.172;2023-11-18T10:52:01;2.92;;;1.35;;
757;SDS011;363;48.764;9.172;2023-11-18T10:54:28;1.73;;;1.50;;
757;SDS011;363;48.764;9.172;2023-11-18T10:56:54;5.60;;;1.70;;
757;SDS011;363;48.764;9.172;2023-11-18T10:59:21;1.95;;;1.50;;
757;SDS011;363;48.764;9.172;2023-11-18T11:01:48;1.70;;;1.40;;
757;SDS011;363;48.764;9.172;2023-11-18T11:04:16;2.58;;;1.83;;
757;SDS011;363;48.764;9.172;2023-11-18T11:06:46;2.55;;;1.73;;
757;SDS011;363;48.764;9.172;2023-11-18T11:09:20;2.20;;;1.70;;
757;SDS011;363;48.764;9.172;2023-11-18T11:11:57;1.90;;;1.70;;
757;SDS011;363;48.764;9.172;2023-11-18T11:14:33;1.83;;;1.73;;
757;SDS011;363;48.764;9.172;2023-11-18T11:17:06;1.67;;;1.50;;
757;SDS011;363;48.764;9.172;2023-11-18T11:19:50;2.15;;;1.80;;
757;SDS011;363;48.764;9.172;2023-11-18T11:22:22;3.13;;;1.58;;
757;SDS011;363;48.764;9.172;2023-11-18T11:25:01;1.80;;;1.60;;
757;SDS011;363;48.764;9.172;2023-11-18T11:30:33;1.50;;;1.40;;
757;SDS011;363;48.764;9.172;2023-11-18T11:33:23;1.42;;;1.33;;
757;SDS011;363;48.764;9.172;2023-11-18T11:35:55;1.88;;;1.40;;
757;SDS011;363;48.764;9.172;2023-11-18T11:38:25;1.50;;;1.27;;
757;SDS011;363;48.764;9.172;2023-11-18T11:40:55;1.92;;;1.50;;
757;SDS011;363;48.764;9.172;2023-11-18T11:43:25;2.22;;;1.50;;
757;SDS011;363;48.764;9.172;2023-11-18T11:45:54;4.93;;;1.30;;
757;SDS011;363;48.764;9.172;2023-11-18T11:48:28;1.67;;;1.58;;
757;SDS011;363;48.764;9.172;2023-11-18T11:51:19;2.25;;;1.80;;
757;SDS011;363;48.764;9.172;2023-11-18T11:54:09;3.70;;;1.60;;
757;SDS011;363;48.764;9.172;2023-11-18T11:56:44;1.67;;;1.35;;
757;SDS011;363;48.764;9.172;2023-11-18T12:02:09;1.77;;;1.60;;
757;SDS011;363;48.764;9.172;2023-11-18T12:04:36;1.63;;;1.52;;
757;SDS011;363;48.764;9.172;2023-11-18T12:07:09;1.98;;;1.38;;
757;SDS011;363;48.764;9.172;2023-11-18T12:12:53;1.67;;;1.58;;
757;SDS011;363;48.764;9.172;2023-11-18T12:22:23;2.45;;;1.33;;
757;SDS011;363;48.764;9.172;2023-11-18T12:27:54;4.50;;;1.40;;
757;SDS011;363;48.764;9.172;2023-11-18T12:41:48;2.13;;;1.35;;
757;SDS011;363;48.764;9.172;2023-11-18T12:55:03;2.80;;;1.25;;
757;SDS011;363;48.764;9.172;2023-11-18T13:04:44;4.35;;;1.50;;
757;SDS011;363;48.764;9.172;2023-11-18T13:07:17;5.13;;;1.70;;
757;SDS011;363;48.764;9.172;2023-11-18T13:09:52;1.75;;;1.60;;
757;SDS011;363;48.764;9.172;2023-11-18T13:12:19;1.98;;;1.60;;
757;SDS011;363;48.764;9.172;2023-11-18T13:14:49;4.47;;;1.42;;
757;SDS011;363;48.764;9.172;2023-11-18T13:17:15;1.88;;;1.75;;
757;SDS011;363;48.764;9.172;2023-11-18T13:19:44;1.65;;;1.55;;
757;SDS011;363;48.764;9.172;2023-11-18T13:22:11;1.98;;;1.77;;
757;SDS011;363;48.764;9.172;2023-11-18T13:24:38;1.90;;;1.80;;
757;SDS011;363;48.764;9.172;2023-11-18T13:27:05;1.80;;;1.70;;
757;SDS011;363;48.764;9.172;2023-11-18T13:29:54;3.50;;;3.17;;
757;SDS011;363;48.764;9.172;2023-11-18T13:32:20;1.65;;;1.50;;
757;SDS011;363;48.764;9.172;2023-11-18T13:34:51;3.40;;;3.00;;
757;SDS011;363;48.764;9.172;2023-11-18T13:37:48;2.50;;;2.10;;
757;SDS011;363;48.764;9.172;2023-11-18T13:40:14;2.88;;;2.60;;
757;SDS011;363;48.764;9.172;2023-11-18T13:42:43;2.70;;;2.50;;
757;SDS011;363;48.764;9.172;2023-11-18T13:45:11;4.43;;;2.45;;
757;SDS011;363;48.764;9.172;2023-11-18T13:47:40;2.25;;;2.05;;
757;SDS011;363;48.764;9.172;2023-11-18T13:50:15;3.28;;;2.90;;
757;SDS011;363;48.764;9.172;2023-11-18T13:52:42;2.70;;;2.20;;
757;SDS011;363;48.764;9.172;2023-11-18T13:55:08;2.95;;;2.10;;
757;SDS011;363;48.764;9.172;2023-11-18T13:57:41;5.30;;;1.75;;
757;SDS011;363;48.764;9.172;2023-11-18T14:00:09;2.72;;;2.17;;
757;SDS011;363;48.764;9.172;2023-11-18T14:02:40;4.07;;;2.47;;
757;SDS011;363;48.764;9.172;2023-11-18T14:05:14;3.67;;;2.20;;
757;SDS011;363;48.764;9.172;2023-11-18T14:07:41;2.55;;;2.35;;
757;SDS011;363;48.764;9.172;2023-11-18T14:10:10;3.42;;;2.40;;
757;SDS011;363;48.764;9.172;2023-11-18T14:12:38;4.55;;;3.17;;
757;SDS011;363;48.764;9.172;2023-11-18T14:15:04;2.97;;;2.53;;
757;SDS011;363;48.764;9.172;2023-11-18T14:17:34;3.20;;;2.53;;
757;SDS011;363;48.764;9.172;2023-11-18T14:20:01;5.27;;;2.50;;
757;SDS011;363;48.764;9.172;2023-11-18T14:22:27;2.25;;;2.05;;
757;SDS011;363;48.764;9.172;2023-11-18T14:24:53;2.22;;;2.03;;
757;SDS011;363;48.764;9.172;2023-11-18T14:27:19;4.33;;;2.40;;
757;SDS011;363;48.764;9.172;2023-11-18T14:29:44;3.30;;;2.50;;
757;SDS011;363;48.764;9.172;2023-11-18T14:32:11;2.92;;;2.60;;
757;SDS011;363;48.764;9.172;2023-11-18T14:34:39;2.67;;;2.30;;
757;SDS011;363;48.764;9.172;2023-11-18T14:37:06;2.38;;;2.17;;
757;SDS011;363;48.764;9.172;2023-11-18T14:39:33;2.70;;;2.50;;
757;SDS011;363;48.764;9.172;2023-11-18T14:42:00;2.63;;;2.42;;
757;SDS011;363;48.764;9.172;2023-11-18T14:44:35;3.30;;;3.00;;
757;SDS011;363;48.764;9.172;2023-11-18T14:47:01;3.45;;;2.75;;
757;SDS011;363;48.764;9.172;2023-11-18T14:49:31;3.95;;;2.75;;
757;SDS011;363;48.764;9.172;2023-11-18T14:51:57;3.72;;;3.10;;
757;SDS011;363;48.764;9.172;2023-11-18T14:54:22;3.67;;;2.80;;
757;SDS011;363;48.764;9.172;2023-11-18T14:56:48;3.43;;;3.00;;
757;SDS011;363;48.764;9.172;2023-11-18T14:59:16;2.83;;;2.40;;
757;SDS011;363;48.764;9.172;2023-11-18T15:01:48;3.17;;;2.78;;
757;SDS011;363;48.764;9.172;2023-11-18T15:04:14;2.50;;;2.30;;
757;SDS011;363;48.764;9.172;2023-11-18T15:06:49;3.22;;;2.90;;
757;SDS011;363;48.764;9.172;2023-11-18T15:09:27;4.43;;;3.00;;
757;SDS011;363;48.764;9.172;2023-11-18T15:12:09;3.83;;;3.45;;
757;SDS011;363;48.764;9.172;2023-11-18T15:14:34;3.13;;;2.83;;
757;SDS011;363;48.764;9.172;2023-11-18T15:17:00;4.53;;;3.10;;
757;SDS011;363;48.764;9.172;2023-11-18T15:19:25;3.90;;;3.50;;
757;SDS011;363;48.764;9.172;2023-11-18T15:22:07;3.53;;;2.83;;
757;SDS011;363;48.764;9.172;2023-11-18T15:24:38;3.50;;;3.20;;
757;SDS011;363;48.764;9.172;2023-11-18T15:27:04;3.53;;;3.23;;
757;SDS011;363;48.764;9.172;2023-11-18T15:29:29;4.60;;;4.10;;
757;SDS011;363;48.764;9.172;2023-11-18T15:32:06;5.88;;;3.80;;
757;SDS011;363;48.764;9.172;2023-11-18T15:34:38;4.35;;;3.95;;
757;SDS011;363;48.764;9.172;2023-11-18T15:37:04;3.50;;;3.20;;
757;SDS011;363;48.764;9.172;2023-11-18T15:39:31;4.10;;;3.80;;
757;SDS011;363;48.764;9.172;2023-11-18T15:42:15;4.07;;;3.77;;
757;SDS011;363;48.764;9.172;2023-11-18T15:44:49;4.63;;;4.20;;
757;SDS011;363;48.764;9.172;2023-11-18T15:47:19;6.85;;;4.25;;
757;SDS011;363;48.764;9.172;2023-11-18T15:49:44;4.07;;;3.67;;
757;SDS011;363;48.764;9.172;2023-11-18T15:52:10;5.53;;;4.40;;
757;SDS011;363;48.764;9.172;2023-11-18T15:54:37;4.57;;;4.15;;
757;SDS011;363;48.764;9.172;2023-11-18T15:57:03;3.80;;;3.50;;
757;SDS011;363;48.764;9.172;2023-11-18T15:59:28;3.50;;;3.20;;
757;SDS011;363;48.764;9.172;2023-11-18T16:01:54;3.73;;;3.43;;
757;SDS011;363;48.764;9.172;2023-11-18T16:04:20;3.77;;;3.30;;
757;SDS011;363;48.764;9.172;2023-11-18T16:06:54;4.00;;;3.60;;
757;SDS011;363;48.764;9.172;2023-11-18T16:09:20;4.70;;;4.20;;
757;SDS011;363;48.764;9.172;2023-11-18T16:14:41;3.88;;;3.40;;
757;SDS011;363;48.764;9.172;2023-11-18T16:17:07;3.20;;;2.80;;
757;SDS011;363;48.764;9.172;2023-11-18T16:19:33;3.00;;;2.80;;
757;SDS011;363;48.764;9.172;2023-11-18T16:27:56;4.82;;;3.50;;
757;SDS011;363;48.764;9.172;2023-11-18T16:30:24;4.95;;;3.97;;
757;SDS011;363;48.764;9.172;2023-11-18T16:32:57;3.72;;;3.25;;
757;SDS011;363;48.764;9.172;2023-11-18T16:35:23;3.28;;;2.72;;
757;SDS011;363;48.764;9.172;2023-11-18T16:37:50;5.45;;;4.30;;
757;SDS011;363;48.764;9.172;2023-11-18T16:40:16;4.20;;;3.23;;
757;SDS011;363;48.764;9.172;2023-11-18T16:42:54;6.28;;;3.33;;
757;SDS011;363;48.764;9.172;2023-11-18T16:45:22;3.17;;;2.88;;
757;SDS011;363;48.764;9.172;2023-11-18T16:47:49;3.22;;;2.92;;
757;SDS011;363;48.764;9.172;2023-11-18T16:50:17;4.57;;;3.13;;